sensor_id;sensor_type;location;lat;lon;timestamp;P1;durP1;ratioP1;P2;durP2;ratioP2
4290;SDS011;2159;50.906;7.152;2023-05-29T00:00:23;5.47;;;3.83;;
4290;SDS011;2159;50.906;7.152;2023-05-29T00:02:51;5.23;;;4.30;;
4290;SDS011;2159;50.906;7.152;2023-05-29T00:05:19;5.80;;;3.93;;
4290;SDS011;2159;50.906;7.152;2023-05-29T00:07:46;5.90;;;4.23;;
4290;SDS011;2159;50.906;7.152;2023-05-29T00:10:15;5.37;;;3.63;;
4290;SDS011;2159;50.906;7.152;2023-05-29T00:12:42;5.20;;;3.80;;
4290;SDS011;2159;50.906;7.152;2023-05-29T00:15:11;6.03;;;3.80;;
4290;SDS011;2159;50.906;7.152;2023-05-29T00:17:39;7.57;;;3.80;;
4290;SDS011;2159;50.906;7.152;2023-05-29T00:20:09;7.90;;;3.70;;
4290;SDS011;2159;50.906;7.152;2023-05-29T00:22:38;7.73;;;3.60;;
4290;SDS011;2159;50.906;7.152;2023-05-29T00:25:06;6.00;;;3.50;;
4290;SDS011;2159;50.906;7.152;2023-05-29T00:27:34;5.07;;;3.40;;
4290;SDS011;2159;50.906;7.152;2023-05-29T00:30:02;7.00;;;3.70;;
4290;SDS011;2159;50.906;7.152;2023-05-29T00:32:32;6.40;;;3.80;;
4290;SDS011;2159;50.906;7.152;2023-05-29T00:34:59;6.57;;;3.73;;
4290;SDS011;2159;50.906;7.152;2023-05-29T00:37:27;7.47;;;4.17;;
4290;SDS011;2159;50.906;7.152;2023-05-29T00:39:54;4.30;;;3.40;;
4290;SDS011;2159;50.906;7.152;2023-05-29T00:42:22;3.90;;;3.50;;
4290;SDS011;2159;50.906;7.152;2023-05-29T00:44:50;4.97;;;3.60;;
4290;SDS011;2159;50.906;7.152;2023-05-29T00:47:17;8.47;;;3.90;;
4290;SDS011;2159;50.906;7.152;2023-05-29T00:49:47;6.33;;;3.93;;
4290;SDS011;2159;50.906;7.152;2023-05-29T00:52:15;9.60;;;3.63;;
4290;SDS011;2159;50.906;7.152;2023-05-29T00:54:43;6.23;;;3.93;;
4290;SDS011;2159;50.906;7.152;2023-05-29T00:57:12;4.67;;;3.60;;
4290;SDS011;2159;50.906;7.152;2023-05-29T00:59:39;4.40;;;3.73;;
4290;SDS011;2159;50.906;7.152;2023-05-29T01:02:08;5.97;;;3.70;;
4290;SDS011;2159;50.906;7.152;2023-05-29T01:04:36;7.20;;;4.00;;
4290;SDS011;2159;50.906;7.152;2023-05-29T01:07:05;7.50;;;3.30;;
4290;SDS011;2159;50.906;7.152;2023-05-29T01:09:33;7.50;;;3.67;;
4290;SDS011;2159;50.906;7.152;2023-05-29T01:12:05;4.20;;;3.43;;
4290;SDS011;2159;50.906;7.152;2023-05-29T01:14:36;9.43;;;3.90;;
4290;SDS011;2159;50.906;7.152;2023-05-29T01:17:06;10.33;;;3.70;;
4290;SDS011;2159;50.906;7.152;2023-05-29T01:19:42;4.70;;;3.40;;
4290;SDS011;2159;50.906;7.152;2023-05-29T01:22:18;6.73;;;3.87;;
4290;SDS011;2159;50.906;7.152;2023-05-29T01:24:51;5.50;;;3.90;;
4290;SDS011;2159;50.906;7.152;2023-05-29T01:27:25;7.87;;;4.20;;
4290;SDS011;2159;50.906;7.152;2023-05-29T01:29:54;6.87;;;3.40;;
4290;SDS011;2159;50.906;7.152;2023-05-29T01:32:22;10.17;;;4.17;;
4290;SDS011;2159;50.906;7.152;2023-05-29T01:34:51;7.00;;;3.93;;
4290;SDS011;2159;50.906;7.152;2023-05-29T01:37:18;3.70;;;3.37;;
4290;SDS011;2159;50.906;7.152;2023-05-29T01:39:46;11.70;;;4.50;;
4290;SDS011;2159;50.906;7.152;2023-05-29T01:42:13;5.00;;;3.50;;
4290;SDS011;2159;50.906;7.152;2023-05-29T01:44:43;5.63;;;3.40;;
4290;SDS011;2159;50.906;7.152;2023-05-29T01:47:10;5.80;;;3.87;;
4290;SDS011;2159;50.906;7.152;2023-05-29T01:49:38;5.67;;;3.90;;
4290;SDS011;2159;50.906;7.152;2023-05-29T01:52:06;6.47;;;3.90;;
4290;SDS011;2159;50.906;7.152;2023-05-29T01:54:34;4.77;;;3.67;;
4290;SDS011;2159;50.906;7.152;2023-05-29T01:57:01;4.70;;;3.30;;
4290;SDS011;2159;50.906;7.152;2023-05-29T01:59:32;6.20;;;4.20;;
4290;SDS011;2159;50.906;7.152;2023-05-29T02:02:05;8.07;;;4.20;;
4290;SDS011;2159;50.906;7.152;2023-05-29T02:04:33;4.93;;;3.80;;
4290;SDS011;2159;50.906;7.152;2023-05-29T02:07:01;5.93;;;4.00;;
4290;SDS011;2159;50.906;7.152;2023-05-29T02:09:28;4.50;;;3.20;;
4290;SDS011;2159;50.906;7.152;2023-05-29T02:11:57;5.23;;;3.33;;
4290;SDS011;2159;50.906;7.152;2023-05-29T02:14:24;4.53;;;3.50;;
4290;SDS011;2159;50.906;7.152;2023-05-29T02:16:52;5.30;;;3.40;;
4290;SDS011;2159;50.906;7.152;2023-05-29T02:19:21;5.17;;;3.77;;
4290;SDS011;2159;50.906;7.152;2023-05-29T02:21:51;7.00;;;3.40;;
4290;SDS011;2159;50.906;7.152;2023-05-29T02:24:19;4.30;;;3.30;;
4290;SDS011;2159;50.906;7.152;2023-05-29T02:26:47;6.67;;;3.80;;
4290;SDS011;2159;50.906;7.152;2023-05-29T02:29:15;6.93;;;3.60;;
4290;SDS011;2159;50.906;7.152;2023-05-29T02:31:42;4.33;;;3.50;;
4290;SDS011;2159;50.906;7.152;2023-05-29T02:34:10;5.33;;;3.40;;
4290;SDS011;2159;50.906;7.152;2023-05-29T02:36:39;10.63;;;3.90;;
4290;SDS011;2159;50.906;7.152;2023-05-29T02:39:07;6.50;;;3.67;;
4290;SDS011;2159;50.906;7.152;2023-05-29T02:41:35;5.20;;;3.60;;
4290;SDS011;2159;50.906;7.152;2023-05-29T02:44:03;7.33;;;3.50;;
4290;SDS011;2159;50.906;7.152;2023-05-29T02:46:30;5.10;;;3.83;;
4290;SDS011;2159;50.906;7.152;2023-05-29T02:48:58;7.43;;;3.33;;
4290;SDS011;2159;50.906;7.152;2023-05-29T02:51:26;5.00;;;3.20;;
4290;SDS011;2159;50.906;7.152;2023-05-29T02:53:55;7.30;;;3.47;;
4290;SDS011;2159;50.906;7.152;2023-05-29T02:56:22;4.33;;;3.47;;
4290;SDS011;2159;50.906;7.152;2023-05-29T02:58:50;4.93;;;3.20;;
4290;SDS011;2159;50.906;7.152;2023-05-29T03:01:18;4.57;;;4.17;;
4290;SDS011;2159;50.906;7.152;2023-05-29T03:03:45;5.50;;;3.50;;
4290;SDS011;2159;50.906;7.152;2023-05-29T03:06:13;5.27;;;3.40;;
4290;SDS011;2159;50.906;7.152;2023-05-29T03:08:42;4.17;;;3.27;;
4290;SDS011;2159;50.906;7.152;2023-05-29T03:11:14;6.10;;;3.90;;
4290;SDS011;2159;50.906;7.152;2023-05-29T03:13:42;8.37;;;3.43;;
4290;SDS011;2159;50.906;7.152;2023-05-29T03:16:09;8.30;;;3.40;;
4290;SDS011;2159;50.906;7.152;2023-05-29T03:18:37;4.10;;;3.40;;
4290;SDS011;2159;50.906;7.152;2023-05-29T03:21:06;4.53;;;3.50;;
4290;SDS011;2159;50.906;7.152;2023-05-29T03:23:33;3.80;;;3.40;;
4290;SDS011;2159;50.906;7.152;2023-05-29T03:26:01;5.93;;;3.33;;
4290;SDS011;2159;50.906;7.152;2023-05-29T03:28:30;4.60;;;3.80;;
4290;SDS011;2159;50.906;7.152;2023-05-29T03:30:58;8.93;;;4.13;;
4290;SDS011;2159;50.906;7.152;2023-05-29T03:33:25;6.60;;;3.50;;
4290;SDS011;2159;50.906;7.152;2023-05-29T03:35:53;6.80;;;3.80;;
4290;SDS011;2159;50.906;7.152;2023-05-29T03:38:21;5.73;;;3.93;;
4290;SDS011;2159;50.906;7.152;2023-05-29T03:40:49;4.93;;;3.57;;
4290;SDS011;2159;50.906;7.152;2023-05-29T03:43:16;8.40;;;4.13;;
4290;SDS011;2159;50.906;7.152;2023-05-29T03:45:45;7.40;;;3.87;;
4290;SDS011;2159;50.906;7.152;2023-05-29T03:48:13;6.50;;;3.53;;
4290;SDS011;2159;50.906;7.152;2023-05-29T03:50:41;4.83;;;4.00;;
4290;SDS011;2159;50.906;7.152;2023-05-29T03:53:09;6.87;;;4.10;;
4290;SDS011;2159;50.906;7.152;2023-05-29T03:55:36;8.70;;;4.00;;
4290;SDS011;2159;50.906;7.152;2023-05-29T03:58:03;4.20;;;3.80;;
4290;SDS011;2159;50.906;7.152;2023-05-29T04:00:31;5.63;;;3.70;;
4290;SDS011;2159;50.906;7.152;2023-05-29T04:03:00;8.87;;;4.00;;
4290;SDS011;2159;50.906;7.152;2023-05-29T04:05:28;6.07;;;3.83;;
4290;SDS011;2159;50.906;7.152;2023-05-29T04:07:57;5.03;;;4.30;;
4290;SDS011;2159;50.906;7.152;2023-05-29T04:10:40;7.70;;;4.07;;
4290;SDS011;2159;50.906;7.152;2023-05-29T04:13:07;6.67;;;3.97;;
4290;SDS011;2159;50.906;7.152;2023-05-29T04:15:35;5.00;;;3.93;;
4290;SDS011;2159;50.906;7.152;2023-05-29T04:18:04;7.50;;;4.10;;
4290;SDS011;2159;50.906;7.152;2023-05-29T04:20:32;9.10;;;4.27;;
4290;SDS011;2159;50.906;7.152;2023-05-29T04:23:00;10.63;;;4.87;;
4290;SDS011;2159;50.906;7.152;2023-05-29T04:25:27;7.63;;;4.07;;
4290;SDS011;2159;50.906;7.152;2023-05-29T04:27:55;6.70;;;4.10;;
4290;SDS011;2159;50.906;7.152;2023-05-29T04:30:22;12.50;;;4.30;;
4290;SDS011;2159;50.906;7.152;2023-05-29T04:32:50;9.47;;;4.07;;
4290;SDS011;2159;50.906;7.152;2023-05-29T04:35:19;9.33;;;4.50;;
4290;SDS011;2159;50.906;7.152;2023-05-29T04:37:48;7.93;;;3.87;;
4290;SDS011;2159;50.906;7.152;2023-05-29T04:40:15;7.93;;;4.00;;
4290;SDS011;2159;50.906;7.152;2023-05-29T04:42:44;6.07;;;3.90;;
4290;SDS011;2159;50.906;7.152;2023-05-29T04:45:12;7.27;;;4.00;;
4290;SDS011;2159;50.906;7.152;2023-05-29T04:47:40;7.87;;;4.07;;
4290;SDS011;2159;50.906;7.152;2023-05-29T04:50:10;5.80;;;3.90;;
4290;SDS011;2159;50.906;7.152;2023-05-29T04:52:39;8.17;;;4.10;;
4290;SDS011;2159;50.906;7.152;2023-05-29T04:55:08;9.93;;;3.63;;
4290;SDS011;2159;50.906;7.152;2023-05-29T04:57:36;6.70;;;4.03;;
4290;SDS011;2159;50.906;7.152;2023-05-29T05:00:04;9.40;;;4.00;;
4290;SDS011;2159;50.906;7.152;2023-05-29T05:02:33;9.37;;;3.83;;
4290;SDS011;2159;50.906;7.152;2023-05-29T05:05:00;5.80;;;3.90;;
4290;SDS011;2159;50.906;7.152;2023-05-29T05:07:28;8.70;;;3.90;;
4290;SDS011;2159;50.906;7.152;2023-05-29T05:09:57;6.17;;;3.90;;
4290;SDS011;2159;50.906;7.152;2023-05-29T05:12:24;9.63;;;3.97;;
4290;SDS011;2159;50.906;7.152;2023-05-29T05:14:52;5.80;;;4.00;;
4290;SDS011;2159;50.906;7.152;2023-05-29T05:17:19;5.90;;;3.60;;
4290;SDS011;2159;50.906;7.152;2023-05-29T05:19:47;14.30;;;4.33;;
4290;SDS011;2159;50.906;7.152;2023-05-29T05:22:16;7.33;;;4.00;;
4290;SDS011;2159;50.906;7.152;2023-05-29T05:24:43;7.50;;;4.20;;
4290;SDS011;2159;50.906;7.152;2023-05-29T05:27:12;9.03;;;4.40;;
4290;SDS011;2159;50.906;7.152;2023-05-29T05:29:40;10.70;;;4.80;;
4290;SDS011;2159;50.906;7.152;2023-05-29T05:32:08;8.50;;;4.13;;
4290;SDS011;2159;50.906;7.152;2023-05-29T05:34:35;8.53;;;4.50;;
4290;SDS011;2159;50.906;7.152;2023-05-29T05:37:03;13.43;;;5.47;;
4290;SDS011;2159;50.906;7.152;2023-05-29T05:39:31;7.23;;;4.73;;
4290;SDS011;2159;50.906;7.152;2023-05-29T05:41:59;15.47;;;5.33;;
4290;SDS011;2159;50.906;7.152;2023-05-29T05:44:28;11.50;;;5.13;;
4290;SDS011;2159;50.906;7.152;2023-05-29T05:46:56;12.53;;;4.40;;
4290;SDS011;2159;50.906;7.152;2023-05-29T05:49:24;11.20;;;4.97;;
4290;SDS011;2159;50.906;7.152;2023-05-29T05:51:51;11.13;;;5.67;;
4290;SDS011;2159;50.906;7.152;2023-05-29T05:54:19;12.47;;;5.17;;
4290;SDS011;2159;50.906;7.152;2023-05-29T05:56:46;9.63;;;4.90;;
4290;SDS011;2159;50.906;7.152;2023-05-29T05:59:14;8.83;;;4.80;;
4290;SDS011;2159;50.906;7.152;2023-05-29T06:01:43;7.97;;;4.73;;
4290;SDS011;2159;50.906;7.152;2023-05-29T06:04:10;9.50;;;4.90;;
4290;SDS011;2159;50.906;7.152;2023-05-29T06:06:38;6.77;;;4.57;;
4290;SDS011;2159;50.906;7.152;2023-05-29T06:09:06;8.80;;;4.90;;
4290;SDS011;2159;50.906;7.152;2023-05-29T06:11:33;8.97;;;5.03;;
4290;SDS011;2159;50.906;7.152;2023-05-29T06:14:01;8.70;;;4.77;;
4290;SDS011;2159;50.906;7.152;2023-05-29T06:16:28;9.93;;;4.70;;
4290;SDS011;2159;50.906;7.152;2023-05-29T06:18:57;13.70;;;4.53;;
4290;SDS011;2159;50.906;7.152;2023-05-29T06:21:25;10.73;;;4.77;;
4290;SDS011;2159;50.906;7.152;2023-05-29T06:23:53;8.13;;;4.33;;
4290;SDS011;2159;50.906;7.152;2023-05-29T06:26:20;11.10;;;4.80;;
4290;SDS011;2159;50.906;7.152;2023-05-29T06:28:48;8.43;;;4.83;;
4290;SDS011;2159;50.906;7.152;2023-05-29T06:31:15;8.73;;;5.10;;
4290;SDS011;2159;50.906;7.152;2023-05-29T06:33:43;11.27;;;4.60;;
4290;SDS011;2159;50.906;7.152;2023-05-29T06:36:12;6.73;;;4.50;;
4290;SDS011;2159;50.906;7.152;2023-05-29T06:38:39;9.83;;;5.07;;
4290;SDS011;2159;50.906;7.152;2023-05-29T06:41:07;11.40;;;4.67;;
4290;SDS011;2159;50.906;7.152;2023-05-29T06:43:35;6.97;;;4.67;;
4290;SDS011;2159;50.906;7.152;2023-05-29T06:46:02;8.70;;;4.60;;
4290;SDS011;2159;50.906;7.152;2023-05-29T06:48:32;11.07;;;5.10;;
4290;SDS011;2159;50.906;7.152;2023-05-29T06:50:59;12.10;;;4.60;;
4290;SDS011;2159;50.906;7.152;2023-05-29T06:53:28;8.53;;;4.50;;
4290;SDS011;2159;50.906;7.152;2023-05-29T06:55:56;12.00;;;4.63;;
4290;SDS011;2159;50.906;7.152;2023-05-29T06:58:23;8.27;;;4.40;;
4290;SDS011;2159;50.906;7.152;2023-05-29T07:00:51;6.70;;;4.40;;
4290;SDS011;2159;50.906;7.152;2023-05-29T07:03:19;4.83;;;3.57;;
4290;SDS011;2159;50.906;7.152;2023-05-29T07:05:46;9.00;;;4.37;;
4290;SDS011;2159;50.906;7.152;2023-05-29T07:08:14;7.20;;;3.70;;
4290;SDS011;2159;50.906;7.152;2023-05-29T07:10:43;7.47;;;4.20;;
4290;SDS011;2159;50.906;7.152;2023-05-29T07:13:13;11.80;;;4.37;;
4290;SDS011;2159;50.906;7.152;2023-05-29T07:15:40;8.93;;;4.47;;
4290;SDS011;2159;50.906;7.152;2023-05-29T07:18:08;7.20;;;4.30;;
4290;SDS011;2159;50.906;7.152;2023-05-29T07:20:35;9.27;;;4.57;;
4290;SDS011;2159;50.906;7.152;2023-05-29T07:23:04;7.20;;;4.60;;
4290;SDS011;2159;50.906;7.152;2023-05-29T07:25:32;6.23;;;3.70;;
4290;SDS011;2159;50.906;7.152;2023-05-29T07:28:00;6.00;;;3.33;;
4290;SDS011;2159;50.906;7.152;2023-05-29T07:30:47;9.60;;;4.10;;
4290;SDS011;2159;50.906;7.152;2023-05-29T07:33:14;12.17;;;4.30;;
4290;SDS011;2159;50.906;7.152;2023-05-29T07:35:42;11.77;;;4.47;;
4290;SDS011;2159;50.906;7.152;2023-05-29T07:38:09;10.20;;;4.20;;
4290;SDS011;2159;50.906;7.152;2023-05-29T07:40:37;9.13;;;4.23;;
4290;SDS011;2159;50.906;7.152;2023-05-29T07:43:09;6.40;;;3.50;;
4290;SDS011;2159;50.906;7.152;2023-05-29T07:45:36;11.17;;;4.10;;
4290;SDS011;2159;50.906;7.152;2023-05-29T07:48:04;9.00;;;3.67;;
4290;SDS011;2159;50.906;7.152;2023-05-29T07:50:31;8.30;;;3.90;;
4290;SDS011;2159;50.906;7.152;2023-05-29T07:52:59;8.70;;;4.20;;
4290;SDS011;2159;50.906;7.152;2023-05-29T07:55:27;14.63;;;4.07;;
4290;SDS011;2159;50.906;7.152;2023-05-29T07:57:54;8.90;;;4.03;;
4290;SDS011;2159;50.906;7.152;2023-05-29T08:00:23;14.37;;;4.57;;
4290;SDS011;2159;50.906;7.152;2023-05-29T08:02:50;8.33;;;4.07;;
4290;SDS011;2159;50.906;7.152;2023-05-29T08:05:19;6.70;;;3.90;;
4290;SDS011;2159;50.906;7.152;2023-05-29T08:07:46;7.30;;;3.50;;
4290;SDS011;2159;50.906;7.152;2023-05-29T08:10:14;7.20;;;3.90;;
4290;SDS011;2159;50.906;7.152;2023-05-29T08:12:42;6.60;;;3.60;;
4290;SDS011;2159;50.906;7.152;2023-05-29T08:15:10;5.77;;;3.90;;
4290;SDS011;2159;50.906;7.152;2023-05-29T08:17:39;5.50;;;3.30;;
4290;SDS011;2159;50.906;7.152;2023-05-29T08:20:07;7.13;;;3.70;;
4290;SDS011;2159;50.906;7.152;2023-05-29T08:22:36;8.70;;;4.30;;
4290;SDS011;2159;50.906;7.152;2023-05-29T08:25:04;6.83;;;3.63;;
4290;SDS011;2159;50.906;7.152;2023-05-29T08:27:32;9.50;;;3.80;;
4290;SDS011;2159;50.906;7.152;2023-05-29T08:29:59;4.83;;;3.57;;
4290;SDS011;2159;50.906;7.152;2023-05-29T08:32:27;9.07;;;4.10;;
4290;SDS011;2159;50.906;7.152;2023-05-29T08:34:56;13.73;;;4.20;;
4290;SDS011;2159;50.906;7.152;2023-05-29T08:37:23;9.13;;;3.83;;
4290;SDS011;2159;50.906;7.152;2023-05-29T08:39:51;7.37;;;3.90;;
4290;SDS011;2159;50.906;7.152;2023-05-29T08:42:21;10.07;;;4.13;;
4290;SDS011;2159;50.906;7.152;2023-05-29T08:44:53;9.37;;;4.30;;
4290;SDS011;2159;50.906;7.152;2023-05-29T08:47:24;5.10;;;3.43;;
4290;SDS011;2159;50.906;7.152;2023-05-29T08:49:54;9.17;;;3.93;;
4290;SDS011;2159;50.906;7.152;2023-05-29T08:52:23;7.43;;;3.50;;
4290;SDS011;2159;50.906;7.152;2023-05-29T08:54:52;8.90;;;3.93;;
4290;SDS011;2159;50.906;7.152;2023-05-29T08:57:19;6.63;;;3.63;;
4290;SDS011;2159;50.906;7.152;2023-05-29T08:59:48;8.50;;;3.83;;
4290;SDS011;2159;50.906;7.152;2023-05-29T09:02:18;7.43;;;4.00;;
4290;SDS011;2159;50.906;7.152;2023-05-29T09:04:46;5.27;;;3.33;;
4290;SDS011;2159;50.906;7.152;2023-05-29T09:07:15;8.80;;;3.70;;
4290;SDS011;2159;50.906;7.152;2023-05-29T09:09:44;8.20;;;3.53;;
4290;SDS011;2159;50.906;7.152;2023-05-29T09:12:12;8.80;;;3.67;;
4290;SDS011;2159;50.906;7.152;2023-05-29T09:14:41;10.73;;;3.10;;
4290;SDS011;2159;50.906;7.152;2023-05-29T09:17:09;6.60;;;3.60;;
4290;SDS011;2159;50.906;7.152;2023-05-29T09:19:37;6.77;;;3.70;;
4290;SDS011;2159;50.906;7.152;2023-05-29T09:22:07;6.47;;;3.80;;
4290;SDS011;2159;50.906;7.152;2023-05-29T09:24:36;5.80;;;3.20;;
4290;SDS011;2159;50.906;7.152;2023-05-29T09:27:06;7.10;;;3.20;;
4290;SDS011;2159;50.906;7.152;2023-05-29T09:29:37;9.40;;;3.40;;
4290;SDS011;2159;50.906;7.152;2023-05-29T09:32:06;7.40;;;3.53;;
4290;SDS011;2159;50.906;7.152;2023-05-29T09:34:34;7.27;;;3.80;;
4290;SDS011;2159;50.906;7.152;2023-05-29T09:37:02;8.47;;;3.90;;
4290;SDS011;2159;50.906;7.152;2023-05-29T09:39:35;6.77;;;3.40;;
4290;SDS011;2159;50.906;7.152;2023-05-29T09:42:12;8.03;;;3.23;;
4290;SDS011;2159;50.906;7.152;2023-05-29T09:44:40;6.50;;;3.33;;
4290;SDS011;2159;50.906;7.152;2023-05-29T09:47:08;5.73;;;3.47;;
4290;SDS011;2159;50.906;7.152;2023-05-29T09:49:40;5.27;;;3.53;;
4290;SDS011;2159;50.906;7.152;2023-05-29T09:52:08;6.40;;;3.20;;
4290;SDS011;2159;50.906;7.152;2023-05-29T09:54:35;5.73;;;3.40;;
4290;SDS011;2159;50.906;7.152;2023-05-29T09:57:03;7.30;;;3.47;;
4290;SDS011;2159;50.906;7.152;2023-05-29T09:59:34;8.10;;;3.40;;
4290;SDS011;2159;50.906;7.152;2023-05-29T10:02:04;6.37;;;3.07;;
4290;SDS011;2159;50.906;7.152;2023-05-29T10:04:33;7.87;;;2.90;;
4290;SDS011;2159;50.906;7.152;2023-05-29T10:07:04;8.63;;;3.23;;
4290;SDS011;2159;50.906;7.152;2023-05-29T10:09:32;5.83;;;3.03;;
4290;SDS011;2159;50.906;7.152;2023-05-29T10:12:01;9.20;;;3.20;;
4290;SDS011;2159;50.906;7.152;2023-05-29T10:14:31;8.87;;;3.20;;
4290;SDS011;2159;50.906;7.152;2023-05-29T10:17:01;9.93;;;4.17;;
4290;SDS011;2159;50.906;7.152;2023-05-29T10:19:30;5.90;;;3.33;;
4290;SDS011;2159;50.906;7.152;2023-05-29T10:21:59;6.83;;;2.97;;
4290;SDS011;2159;50.906;7.152;2023-05-29T10:24:29;8.47;;;3.87;;
4290;SDS011;2159;50.906;7.152;2023-05-29T10:26:57;3.60;;;2.60;;
4290;SDS011;2159;50.906;7.152;2023-05-29T10:29:26;8.40;;;2.90;;
4290;SDS011;2159;50.906;7.152;2023-05-29T10:32:00;6.03;;;2.80;;
4290;SDS011;2159;50.906;7.152;2023-05-29T10:34:31;8.27;;;3.60;;
4290;SDS011;2159;50.906;7.152;2023-05-29T10:39:44;12.63;;;3.20;;
4290;SDS011;2159;50.906;7.152;2023-05-29T10:44:58;6.27;;;2.63;;
4290;SDS011;2159;50.906;7.152;2023-05-29T10:47:25;6.57;;;3.03;;
4290;SDS011;2159;50.906;7.152;2023-05-29T10:49:54;6.70;;;3.00;;
4290;SDS011;2159;50.906;7.152;2023-05-29T10:52:26;7.77;;;2.80;;
4290;SDS011;2159;50.906;7.152;2023-05-29T10:54:57;6.10;;;2.87;;
4290;SDS011;2159;50.906;7.152;2023-05-29T10:57:25;7.77;;;3.20;;
4290;SDS011;2159;50.906;7.152;2023-05-29T10:59:59;8.07;;;2.93;;
4290;SDS011;2159;50.906;7.152;2023-05-29T11:02:29;7.40;;;3.20;;
4290;SDS011;2159;50.906;7.152;2023-05-29T11:05:19;6.90;;;2.90;;
4290;SDS011;2159;50.906;7.152;2023-05-29T11:07:53;4.67;;;2.70;;
4290;SDS011;2159;50.906;7.152;2023-05-29T11:13:08;5.47;;;2.77;;
4290;SDS011;2159;50.906;7.152;2023-05-29T11:15:36;8.30;;;3.30;;
4290;SDS011;2159;50.906;7.152;2023-05-29T11:18:06;6.87;;;2.90;;
4290;SDS011;2159;50.906;7.152;2023-05-29T11:20:41;6.43;;;2.60;;
4290;SDS011;2159;50.906;7.152;2023-05-29T11:23:13;5.77;;;2.87;;
4290;SDS011;2159;50.906;7.152;2023-05-29T11:25:44;5.50;;;2.23;;
4290;SDS011;2159;50.906;7.152;2023-05-29T11:28:12;11.73;;;3.17;;
4290;SDS011;2159;50.906;7.152;2023-05-29T11:30:43;9.80;;;3.20;;
4290;SDS011;2159;50.906;7.152;2023-05-29T11:33:13;5.00;;;2.87;;
4290;SDS011;2159;50.906;7.152;2023-05-29T11:35:44;10.33;;;3.80;;
4290;SDS011;2159;50.906;7.152;2023-05-29T11:38:14;9.37;;;3.00;;
4290;SDS011;2159;50.906;7.152;2023-05-29T11:40:42;7.40;;;3.17;;
4290;SDS011;2159;50.906;7.152;2023-05-29T11:43:11;10.10;;;3.20;;
4290;SDS011;2159;50.906;7.152;2023-05-29T11:45:39;8.93;;;3.17;;
4290;SDS011;2159;50.906;7.152;2023-05-29T11:48:07;5.93;;;3.17;;
4290;SDS011;2159;50.906;7.152;2023-05-29T11:50:35;6.97;;;3.20;;
4290;SDS011;2159;50.906;7.152;2023-05-29T11:53:05;3.53;;;2.83;;
4290;SDS011;2159;50.906;7.152;2023-05-29T11:55:33;7.70;;;2.77;;
4290;SDS011;2159;50.906;7.152;2023-05-29T11:58:01;5.43;;;2.93;;
4290;SDS011;2159;50.906;7.152;2023-05-29T12:00:32;6.67;;;3.20;;
4290;SDS011;2159;50.906;7.152;2023-05-29T12:03:00;5.50;;;3.07;;
4290;SDS011;2159;50.906;7.152;2023-05-29T12:05:30;4.63;;;2.80;;
4290;SDS011;2159;50.906;7.152;2023-05-29T12:07:58;6.53;;;2.90;;
4290;SDS011;2159;50.906;7.152;2023-05-29T12:10:28;5.83;;;3.10;;
4290;SDS011;2159;50.906;7.152;2023-05-29T12:12:57;6.80;;;3.20;;
4290;SDS011;2159;50.906;7.152;2023-05-29T12:15:25;7.73;;;3.10;;
4290;SDS011;2159;50.906;7.152;2023-05-29T12:17:53;7.30;;;3.20;;
4290;SDS011;2159;50.906;7.152;2023-05-29T12:20:23;5.37;;;2.90;;
4290;SDS011;2159;50.906;7.152;2023-05-29T12:22:53;8.33;;;3.30;;
4290;SDS011;2159;50.906;7.152;2023-05-29T12:25:26;7.70;;;3.20;;
4290;SDS011;2159;50.906;7.152;2023-05-29T12:27:56;5.13;;;2.90;;
4290;SDS011;2159;50.906;7.152;2023-05-29T12:30:24;5.80;;;2.87;;
4290;SDS011;2159;50.906;7.152;2023-05-29T12:32:58;3.90;;;2.57;;
4290;SDS011;2159;50.906;7.152;2023-05-29T12:35:28;7.53;;;3.70;;
4290;SDS011;2159;50.906;7.152;2023-05-29T12:37:56;6.17;;;3.30;;
4290;SDS011;2159;50.906;7.152;2023-05-29T12:40:24;6.33;;;3.20;;
4290;SDS011;2159;50.906;7.152;2023-05-29T12:42:53;5.73;;;3.17;;
4290;SDS011;2159;50.906;7.152;2023-05-29T12:45:24;6.23;;;3.07;;
4290;SDS011;2159;50.906;7.152;2023-05-29T12:47:52;9.37;;;3.40;;
4290;SDS011;2159;50.906;7.152;2023-05-29T12:50:21;7.93;;;3.43;;
4290;SDS011;2159;50.906;7.152;2023-05-29T12:52:55;6.17;;;3.27;;
4290;SDS011;2159;50.906;7.152;2023-05-29T12:55:23;8.70;;;3.20;;
4290;SDS011;2159;50.906;7.152;2023-05-29T12:57:50;5.70;;;3.00;;
4290;SDS011;2159;50.906;7.152;2023-05-29T13:00:19;7.50;;;3.13;;
4290;SDS011;2159;50.906;7.152;2023-05-29T13:02:49;6.23;;;3.40;;
4290;SDS011;2159;50.906;7.152;2023-05-29T13:05:17;7.33;;;3.57;;
4290;SDS011;2159;50.906;7.152;2023-05-29T13:07:46;6.97;;;2.67;;
4290;SDS011;2159;50.906;7.152;2023-05-29T13:10:14;5.87;;;2.83;;
4290;SDS011;2159;50.906;7.152;2023-05-29T13:12:41;6.63;;;3.20;;
4290;SDS011;2159;50.906;7.152;2023-05-29T13:15:10;9.90;;;3.33;;
4290;SDS011;2159;50.906;7.152;2023-05-29T13:17:37;7.13;;;2.87;;
4290;SDS011;2159;50.906;7.152;2023-05-29T13:20:09;5.37;;;2.93;;
4290;SDS011;2159;50.906;7.152;2023-05-29T13:22:37;5.87;;;2.67;;
4290;SDS011;2159;50.906;7.152;2023-05-29T13:25:05;6.37;;;2.80;;
4290;SDS011;2159;50.906;7.152;2023-05-29T13:27:33;4.90;;;2.80;;
4290;SDS011;2159;50.906;7.152;2023-05-29T13:30:01;5.70;;;2.67;;
4290;SDS011;2159;50.906;7.152;2023-05-29T13:32:29;8.93;;;2.87;;
4290;SDS011;2159;50.906;7.152;2023-05-29T13:34:57;5.70;;;2.70;;
4290;SDS011;2159;50.906;7.152;2023-05-29T13:37:26;9.83;;;2.73;;
4290;SDS011;2159;50.906;7.152;2023-05-29T13:39:54;7.50;;;3.03;;
4290;SDS011;2159;50.906;7.152;2023-05-29T13:42:21;3.60;;;2.70;;
4290;SDS011;2159;50.906;7.152;2023-05-29T13:44:49;5.60;;;3.03;;
4290;SDS011;2159;50.906;7.152;2023-05-29T13:47:17;7.30;;;3.17;;
4290;SDS011;2159;50.906;7.152;2023-05-29T13:49:45;5.20;;;2.83;;
4290;SDS011;2159;50.906;7.152;2023-05-29T13:52:12;8.20;;;3.17;;
4290;SDS011;2159;50.906;7.152;2023-05-29T13:54:41;4.37;;;2.80;;
4290;SDS011;2159;50.906;7.152;2023-05-29T13:57:09;4.30;;;2.67;;
4290;SDS011;2159;50.906;7.152;2023-05-29T13:59:36;6.53;;;3.03;;
4290;SDS011;2159;50.906;7.152;2023-05-29T14:02:04;6.87;;;2.80;;
4290;SDS011;2159;50.906;7.152;2023-05-29T14:04:32;4.93;;;2.57;;
4290;SDS011;2159;50.906;7.152;2023-05-29T14:06:59;6.13;;;3.33;;
4290;SDS011;2159;50.906;7.152;2023-05-29T14:09:27;4.73;;;3.03;;
4290;SDS011;2159;50.906;7.152;2023-05-29T14:11:56;6.00;;;3.20;;
4290;SDS011;2159;50.906;7.152;2023-05-29T14:14:24;5.03;;;2.77;;
4290;SDS011;2159;50.906;7.152;2023-05-29T14:16:52;6.97;;;3.30;;
4290;SDS011;2159;50.906;7.152;2023-05-29T14:19:21;6.90;;;3.37;;
4290;SDS011;2159;50.906;7.152;2023-05-29T14:21:48;6.50;;;2.93;;
4290;SDS011;2159;50.906;7.152;2023-05-29T14:24:16;5.07;;;2.73;;
4290;SDS011;2159;50.906;7.152;2023-05-29T14:26:44;8.60;;;2.60;;
4290;SDS011;2159;50.906;7.152;2023-05-29T14:29:14;5.03;;;2.67;;
4290;SDS011;2159;50.906;7.152;2023-05-29T14:31:42;5.93;;;2.40;;
4290;SDS011;2159;50.906;7.152;2023-05-29T14:34:11;6.10;;;2.70;;
4290;SDS011;2159;50.906;7.152;2023-05-29T14:36:39;7.63;;;3.20;;
4290;SDS011;2159;50.906;7.152;2023-05-29T14:39:07;7.20;;;3.07;;
4290;SDS011;2159;50.906;7.152;2023-05-29T14:41:34;5.37;;;2.83;;
4290;SDS011;2159;50.906;7.152;2023-05-29T14:44:02;6.90;;;2.93;;
4290;SDS011;2159;50.906;7.152;2023-05-29T14:46:31;11.13;;;3.20;;
4290;SDS011;2159;50.906;7.152;2023-05-29T14:48:59;6.50;;;2.80;;
4290;SDS011;2159;50.906;7.152;2023-05-29T14:51:27;5.27;;;2.70;;
4290;SDS011;2159;50.906;7.152;2023-05-29T14:53:54;5.33;;;2.80;;
4290;SDS011;2159;50.906;7.152;2023-05-29T14:56:22;3.47;;;2.57;;
4290;SDS011;2159;50.906;7.152;2023-05-29T14:58:49;6.00;;;3.10;;
4290;SDS011;2159;50.906;7.152;2023-05-29T15:01:18;5.13;;;2.80;;
4290;SDS011;2159;50.906;7.152;2023-05-29T15:03:48;3.63;;;2.47;;
4290;SDS011;2159;50.906;7.152;2023-05-29T15:06:15;7.30;;;3.27;;
4290;SDS011;2159;50.906;7.152;2023-05-29T15:08:43;5.63;;;2.80;;
4290;SDS011;2159;50.906;7.152;2023-05-29T15:11:11;5.20;;;3.03;;
4290;SDS011;2159;50.906;7.152;2023-05-29T15:13:41;5.27;;;3.17;;
4290;SDS011;2159;50.906;7.152;2023-05-29T15:16:09;3.90;;;2.70;;
4290;SDS011;2159;50.906;7.152;2023-05-29T15:18:36;4.10;;;2.70;;
4290;SDS011;2159;50.906;7.152;2023-05-29T15:21:05;4.53;;;3.10;;
4290;SDS011;2159;50.906;7.152;2023-05-29T15:23:33;4.33;;;2.60;;
4290;SDS011;2159;50.906;7.152;2023-05-29T15:26:01;7.30;;;3.67;;
4290;SDS011;2159;50.906;7.152;2023-05-29T15:28:29;4.80;;;2.47;;
4290;SDS011;2159;50.906;7.152;2023-05-29T15:30:57;6.00;;;2.63;;